createdAt,value
2022-08-25T00:00:56.802Z,22.78
2022-08-25T00:01:56.503Z,22.75
2022-08-25T00:02:57.729Z,22.74
2022-08-25T00:03:56.486Z,22.72
2022-08-25T00:04:56.488Z,22.72
2022-08-25T00:05:56.495Z,22.72
2022-08-25T00:07:00.621Z,22.68
2022-08-25T00:07:56.459Z,22.65
2022-08-25T00:08:56.488Z,22.62
2022-08-25T00:09:56.424Z,22.62
2022-08-25T00:11:03.171Z,22.60
2022-08-25T00:11:56.449Z,22.59
2022-08-25T00:12:56.379Z,22.54
2022-08-25T00:13:56.704Z,22.54
2022-08-25T00:14:56.407Z,22.53
2022-08-25T00:15:56.411Z,22.50
2022-08-25T00:16:56.376Z,22.50
2022-08-25T00:17:56.330Z,22.52
2022-08-25T00:18:56.319Z,22.49
2022-08-25T00:19:56.324Z,22.49
2022-08-25T00:20:56.827Z,22.46
2022-08-25T00:21:56.300Z,22.44
2022-08-25T00:22:56.285Z,22.43
2022-08-25T00:23:56.266Z,22.43
2022-08-25T00:24:56.283Z,22.43
2022-08-25T00:25:56.244Z,22.38
2022-08-25T00:26:56.323Z,22.37
2022-08-25T00:27:56.575Z,22.34
2022-08-25T00:29:01.186Z,22.34
2022-08-25T00:29:56.229Z,22.31
2022-08-25T00:30:56.231Z,22.31
2022-08-25T00:31:56.179Z,22.28
2022-08-25T00:32:57.363Z,22.28
2022-08-25T00:33:56.156Z,22.25
2022-08-25T00:34:57.454Z,22.25
2022-08-25T00:35:56.133Z,22.20
2022-08-25T00:36:56.125Z,22.22
2022-08-25T00:37:56.124Z,22.19
2022-08-25T00:38:56.142Z,22.20
2022-08-25T00:39:56.133Z,22.19
2022-08-25T00:40:56.091Z,22.17
2022-08-25T00:41:56.510Z,22.14
2022-08-25T00:42:56.092Z,22.14
2022-08-25T00:43:56.045Z,22.13
2022-08-25T00:44:56.432Z,22.10
2022-08-25T00:45:56.113Z,22.09
2022-08-25T00:46:56.025Z,22.07
2022-08-25T00:47:58.727Z,22.04
2022-08-25T00:48:56.314Z,22.04
2022-08-25T00:49:55.995Z,22.04
2022-08-25T00:50:56.007Z,22.01
2022-08-25T00:51:55.955Z,22.02
2022-08-25T00:52:55.957Z,21.99
2022-08-25T00:53:55.927Z,21.99
2022-08-25T00:54:55.927Z,21.99
2022-08-25T00:55:56.347Z,21.95
2022-08-25T00:56:55.961Z,21.98
2022-08-25T00:57:55.913Z,21.94
2022-08-25T00:58:55.890Z,21.94
2022-08-25T00:59:55.874Z,21.92
2022-08-25T01:00:55.875Z,21.94
2022-08-25T01:01:55.955Z,21.90
2022-08-25T01:02:56.393Z,21.91
2022-08-25T01:03:55.827Z,21.90
2022-08-25T01:04:55.817Z,21.90
2022-08-25T01:05:55.827Z,21.88
2022-08-25T01:06:55.811Z,21.85
2022-08-25T01:08:05.853Z,21.82
2022-08-25T01:08:55.834Z,21.83
2022-08-25T01:09:56.253Z,21.82
2022-08-25T01:10:55.752Z,21.79
2022-08-25T01:11:55.744Z,21.78
2022-08-25T01:12:55.735Z,21.76
2022-08-25T01:13:55.713Z,21.78
2022-08-25T01:14:55.736Z,21.76
2022-08-25T01:15:55.745Z,21.74
2022-08-25T01:16:56.094Z,21.75
2022-08-25T01:17:55.696Z,21.72
2022-08-25T01:18:55.686Z,21.72
2022-08-25T01:19:55.649Z,21.74
2022-08-25T01:20:55.709Z,21.69
2022-08-25T01:21:55.638Z,21.72
2022-08-25T01:22:55.624Z,21.67
2022-08-25T01:23:55.948Z,21.67
2022-08-25T01:24:55.599Z,21.67
2022-08-25T01:25:55.593Z,21.66
2022-08-25T01:26:55.659Z,21.67
2022-08-25T01:27:55.555Z,21.64
2022-08-25T01:28:55.561Z,21.66
2022-08-25T01:29:55.542Z,21.64
2022-08-25T01:30:56.095Z,21.63
2022-08-25T01:31:55.542Z,21.63
2022-08-25T01:32:55.560Z,21.63
2022-08-25T01:33:55.516Z,21.60
2022-08-25T01:34:55.536Z,21.63
2022-08-25T01:35:55.472Z,21.61
2022-08-25T01:36:55.513Z,21.63
2022-08-25T01:37:55.827Z,21.61
2022-08-25T01:38:55.503Z,21.59
2022-08-25T01:39:55.465Z,21.59
2022-08-25T01:40:55.449Z,21.56
2022-08-25T01:41:55.410Z,21.57
2022-08-25T01:42:55.412Z,21.54
2022-08-25T01:43:55.385Z,21.53
2022-08-25T01:44:56.741Z,21.53
2022-08-25T01:45:55.429Z,21.51
2022-08-25T01:46:55.402Z,21.51
2022-08-25T01:47:55.350Z,21.53
2022-08-25T01:48:55.346Z,21.51
2022-08-25T01:49:55.328Z,21.53
2022-08-25T01:50:55.363Z,21.51
2022-08-25T01:51:56.767Z,21.51
2022-08-25T01:52:55.293Z,21.50
2022-08-25T01:53:55.281Z,21.50
2022-08-25T01:54:55.267Z,21.46
2022-08-25T01:55:55.272Z,21.46
2022-08-25T01:56:55.288Z,21.44
2022-08-25T01:57:55.233Z,21.44
2022-08-25T01:58:55.552Z,21.45
2022-08-25T01:59:55.215Z,21.44
2022-08-25T02:00:55.228Z,21.41
2022-08-25T02:01:59.539Z,21.41
2022-08-25T02:02:55.595Z,21.41
2022-08-25T02:03:55.193Z,21.38
2022-08-25T02:04:55.166Z,21.39
2022-08-25T02:05:55.590Z,21.38
2022-08-25T02:06:55.138Z,21.39
2022-08-25T02:07:55.122Z,21.36
2022-08-25T02:08:55.160Z,21.35
2022-08-25T02:09:55.129Z,21.32
2022-08-25T02:10:55.107Z,21.32
2022-08-25T02:11:55.077Z,21.32
2022-08-25T02:12:55.465Z,21.29
2022-08-25T02:13:55.093Z,21.30
2022-08-25T02:14:55.099Z,21.29
2022-08-25T02:15:55.049Z,21.27
2022-08-25T02:16:55.267Z,21.26
2022-08-25T02:17:55.020Z,21.27
2022-08-25T02:18:55.016Z,21.29
2022-08-25T02:19:55.303Z,21.30
2022-08-25T02:20:55.033Z,21.27
2022-08-25T02:21:54.975Z,21.27
2022-08-25T02:22:56.968Z,21.26
2022-08-25T02:23:54.952Z,21.23
2022-08-25T02:24:54.970Z,21.23
2022-08-25T02:25:54.937Z,21.21
2022-08-25T02:26:55.400Z,21.20
2022-08-25T02:27:54.912Z,21.20
2022-08-25T02:28:54.891Z,21.17
2022-08-25T02:29:54.898Z,21.19
2022-08-25T02:31:01.322Z,21.14
2022-08-25T02:31:54.874Z,21.13
2022-08-25T02:32:54.885Z,21.13
2022-08-25T02:33:57.988Z,21.11
2022-08-25T02:34:54.827Z,21.09
2022-08-25T02:35:54.840Z,21.11
2022-08-25T02:36:54.845Z,21.06
2022-08-25T02:37:54.824Z,21.05
2022-08-25T02:38:54.805Z,21.02
2022-08-25T02:39:54.824Z,20.99
2022-08-25T02:40:55.234Z,20.96
2022-08-25T02:41:54.791Z,20.95
2022-08-25T02:42:54.743Z,20.95
2022-08-25T02:43:54.733Z,20.91
2022-08-25T02:44:54.755Z,20.91
2022-08-25T02:45:54.773Z,20.89
2022-08-25T02:46:54.717Z,20.89
2022-08-25T02:47:55.065Z,20.87
2022-08-25T02:48:54.671Z,20.86
2022-08-25T02:49:54.675Z,20.84
2022-08-25T02:50:54.710Z,20.80
2022-08-25T02:51:54.642Z,20.79
2022-08-25T02:52:54.630Z,20.72
2022-08-25T02:53:54.621Z,20.72
2022-08-25T02:54:55.117Z,20.68
2022-08-25T02:55:54.630Z,20.65
2022-08-25T02:56:54.608Z,20.62
2022-08-25T02:57:54.578Z,20.61
2022-08-25T02:58:54.561Z,20.58
2022-08-25T02:59:54.601Z,20.56
2022-08-25T03:00:54.572Z,20.54
2022-08-25T03:01:54.960Z,20.51
2022-08-25T03:02:54.554Z,20.49
2022-08-25T03:03:54.597Z,20.47
2022-08-25T03:04:55.136Z,20.47
2022-08-25T03:05:54.490Z,20.47
2022-08-25T03:06:54.487Z,20.46
2022-08-25T03:07:54.492Z,20.46
2022-08-25T03:08:54.854Z,20.43
2022-08-25T03:09:54.470Z,20.43
2022-08-25T03:10:54.457Z,20.42
2022-08-25T03:11:54.435Z,20.42
2022-08-25T03:12:54.418Z,20.42
2022-08-25T03:13:54.416Z,20.42
2022-08-25T03:14:54.444Z,20.39
2022-08-25T03:15:54.869Z,20.38
2022-08-25T03:16:54.453Z,20.35
2022-08-25T03:17:54.358Z,20.34
2022-08-25T03:18:54.339Z,20.34
2022-08-25T03:19:54.364Z,20.33
2022-08-25T03:20:54.384Z,20.33
2022-08-25T03:21:54.329Z,20.30
2022-08-25T03:22:54.312Z,20.28
2022-08-25T03:23:54.291Z,20.28
2022-08-25T03:24:54.279Z,20.24
2022-08-25T03:25:54.276Z,20.24
2022-08-25T03:26:54.294Z,20.20
2022-08-25T03:27:54.729Z,20.18
2022-08-25T03:28:54.258Z,20.20
2022-08-25T03:29:54.221Z,20.13
2022-08-25T03:30:55.844Z,20.13
2022-08-25T03:31:54.283Z,20.13
2022-08-25T03:32:54.236Z,20.12
2022-08-25T03:33:54.188Z,20.09
2022-08-25T03:34:54.164Z,20.08
2022-08-25T03:35:54.185Z,20.08
2022-08-25T03:36:54.145Z,20.06
2022-08-25T03:37:54.139Z,20.05
2022-08-25T03:38:54.169Z,20.06
2022-08-25T03:39:54.655Z,20.03
2022-08-25T03:40:54.115Z,20.00
2022-08-25T03:41:54.100Z,20.00
2022-08-25T03:42:54.081Z,19.98
2022-08-25T03:43:54.086Z,19.97
2022-08-25T03:44:54.106Z,20.00
2022-08-25T03:45:54.097Z,20.00
2022-08-25T03:46:54.440Z,19.98
2022-08-25T03:47:54.030Z,20.02
2022-08-25T03:48:54.033Z,20.02
2022-08-25T03:49:54.022Z,20.00
2022-08-25T03:50:54.065Z,20.00
2022-08-25T03:51:53.982Z,20.02
2022-08-25T03:52:53.986Z,19.98
2022-08-25T03:53:54.301Z,19.97
2022-08-25T03:54:53.941Z,19.97
2022-08-25T03:55:53.971Z,19.94
2022-08-25T03:56:53.967Z,19.95
2022-08-25T03:57:53.926Z,19.95
2022-08-25T03:58:53.914Z,19.94
2022-08-25T03:59:53.902Z,19.94
2022-08-25T04:00:54.368Z,19.94
2022-08-25T04:01:55.346Z,19.93
2022-08-25T04:02:53.907Z,19.93
2022-08-25T04:03:53.857Z,19.97
2022-08-25T04:04:53.840Z,19.95
2022-08-25T04:05:53.826Z,19.97
2022-08-25T04:06:53.819Z,20.00
2022-08-25T04:07:58.887Z,20.02
2022-08-25T04:08:53.850Z,20.05
2022-08-25T04:09:53.832Z,20.05
2022-08-25T04:10:53.800Z,20.06
2022-08-25T04:11:53.788Z,20.06
2022-08-25T04:12:53.760Z,20.06
2022-08-25T04:13:53.747Z,20.06
2022-08-25T04:14:54.075Z,20.06
2022-08-25T04:15:53.725Z,20.05
2022-08-25T04:16:53.834Z,20.03
2022-08-25T04:17:53.693Z,20.05
2022-08-25T04:18:53.681Z,20.05
2022-08-25T04:19:53.733Z,20.03
2022-08-25T04:20:53.714Z,20.06
2022-08-25T04:21:56.803Z,20.05
2022-08-25T04:22:53.638Z,20.05
2022-08-25T04:23:53.633Z,20.05
2022-08-25T04:24:53.618Z,20.05
2022-08-25T04:25:53.631Z,20.02
2022-08-25T04:26:53.645Z,20.02
2022-08-25T04:27:53.600Z,20.02
2022-08-25T04:28:53.900Z,20.00
2022-08-25T04:29:53.567Z,20.00
2022-08-25T04:30:53.549Z,19.98
2022-08-25T04:31:53.674Z,19.98
2022-08-25T04:32:53.573Z,20.00
2022-08-25T04:33:53.554Z,20.00
2022-08-25T04:34:53.515Z,20.00
2022-08-25T04:35:53.962Z,20.00
2022-08-25T04:36:53.479Z,19.98
2022-08-25T04:37:53.481Z,20.00
2022-08-25T04:38:53.498Z,20.02
2022-08-25T04:39:53.571Z,20.03
2022-08-25T04:40:53.439Z,20.03
2022-08-25T04:41:53.431Z,20.06
2022-08-25T04:42:53.799Z,20.05
2022-08-25T04:43:53.427Z,20.08
2022-08-25T04:44:53.433Z,20.08
2022-08-25T04:45:53.456Z,20.05
2022-08-25T04:46:53.377Z,20.05
2022-08-25T04:47:55.071Z,20.03
2022-08-25T04:48:53.363Z,20.05
2022-08-25T04:49:53.640Z,20.05
2022-08-25T04:50:53.369Z,20.05
2022-08-25T04:51:53.327Z,20.06
2022-08-25T04:52:53.314Z,20.05
2022-08-25T04:53:53.305Z,20.05
2022-08-25T04:54:53.290Z,20.06
2022-08-25T04:55:53.298Z,20.08
2022-08-25T04:56:54.603Z,20.09
2022-08-25T04:57:53.261Z,20.10
2022-08-25T04:58:53.250Z,20.15
2022-08-25T04:59:53.235Z,20.16
2022-08-25T05:00:53.285Z,20.20
2022-08-25T05:01:53.216Z,20.18
2022-08-25T05:02:53.267Z,20.23
2022-08-25T05:03:53.562Z,20.23
2022-08-25T05:04:53.242Z,20.24
2022-08-25T05:05:53.203Z,20.24
2022-08-25T05:06:53.167Z,20.23
2022-08-25T05:07:53.163Z,20.23
2022-08-25T05:08:53.152Z,20.25
2022-08-25T05:09:53.137Z,20.27
2022-08-25T05:10:53.576Z,20.25
2022-08-25T05:11:53.572Z,20.27
2022-08-25T05:12:53.087Z,20.25
2022-08-25T05:13:53.095Z,20.27
2022-08-25T05:14:53.108Z,20.28
2022-08-25T05:15:53.065Z,20.31
2022-08-25T05:16:53.136Z,20.30
2022-08-25T05:17:55.957Z,20.31
2022-08-25T05:18:53.040Z,20.31
2022-08-25T05:19:53.024Z,20.30
2022-08-25T05:20:53.026Z,20.31
2022-08-25T05:21:52.992Z,20.34
2022-08-25T05:22:52.989Z,20.33
2022-08-25T05:23:52.981Z,20.34
2022-08-25T05:24:53.263Z,20.35
2022-08-25T05:25:52.948Z,20.39
2022-08-25T05:26:52.962Z,20.39
2022-08-25T05:27:52.930Z,20.43
2022-08-25T05:28:52.923Z,20.47
2022-08-25T05:29:52.908Z,20.46
2022-08-25T05:30:52.894Z,20.49
2022-08-25T05:31:53.485Z,20.49
2022-08-25T05:32:52.917Z,20.51
2022-08-25T05:33:52.871Z,20.51
2022-08-25T05:34:52.848Z,20.54
2022-08-25T05:35:52.846Z,20.54
2022-08-25T05:36:52.826Z,20.61
2022-08-25T05:37:52.840Z,20.62
2022-08-25T05:38:53.199Z,20.64
2022-08-25T05:39:52.840Z,20.66
2022-08-25T05:40:52.787Z,20.69
2022-08-25T05:41:52.802Z,20.72
2022-08-25T05:42:52.758Z,20.72
2022-08-25T05:43:52.765Z,20.77
2022-08-25T05:44:52.778Z,20.77
2022-08-25T05:45:53.275Z,20.81
2022-08-25T05:46:52.725Z,20.83
2022-08-25T05:47:52.708Z,20.87
2022-08-25T05:48:52.703Z,20.87
2022-08-25T05:49:52.692Z,20.89
2022-08-25T05:50:52.709Z,20.91
2022-08-25T05:51:52.670Z,20.98
2022-08-25T05:52:53.039Z,20.99
2022-08-25T05:53:52.655Z,21.02
2022-08-25T05:54:52.648Z,21.08
2022-08-25T05:55:52.631Z,21.17
2022-08-25T05:56:52.649Z,21.36
2022-08-25T05:57:52.604Z,21.71
2022-08-25T05:58:52.606Z,22.10
2022-08-25T05:59:52.885Z,22.38
2022-08-25T06:00:52.606Z,22.60
2022-08-25T06:01:52.555Z,22.82
2022-08-25T06:02:52.569Z,23.01
2022-08-25T06:03:52.635Z,23.15
2022-08-25T06:04:52.543Z,23.38
2022-08-25T06:05:52.540Z,23.49
2022-08-25T06:06:52.948Z,23.52
2022-08-25T06:07:52.515Z,23.64
2022-08-25T06:08:52.517Z,23.70
2022-08-25T06:09:52.472Z,23.82
2022-08-25T06:10:52.465Z,23.83
2022-08-25T06:11:54.962Z,23.79
2022-08-25T06:12:52.439Z,23.79
2022-08-25T06:13:52.438Z,23.85
2022-08-25T06:14:52.462Z,23.95
2022-08-25T06:15:52.412Z,24.01
2022-08-25T06:16:52.406Z,24.00
2022-08-25T06:17:52.416Z,23.94
2022-08-25T06:18:52.384Z,23.95
2022-08-25T06:19:52.819Z,23.94
2022-08-25T06:20:52.385Z,24.01
2022-08-25T06:21:52.361Z,24.07
2022-08-25T06:22:52.337Z,24.19
2022-08-25T06:23:52.725Z,24.26
2022-08-25T06:24:52.316Z,24.31
2022-08-25T06:25:52.302Z,24.39
2022-08-25T06:26:52.740Z,24.50
2022-08-25T06:27:52.298Z,24.61
2022-08-25T06:28:52.287Z,24.63
2022-08-25T06:29:53.430Z,24.73
2022-08-25T06:30:52.303Z,24.83
2022-08-25T06:31:52.348Z,25.05
2022-08-25T06:32:52.272Z,25.15
2022-08-25T06:33:52.507Z,25.39
2022-08-25T06:34:52.207Z,25.59
2022-08-25T06:35:52.201Z,25.64
2022-08-25T06:36:52.191Z,25.68
2022-08-25T06:37:52.194Z,25.80
2022-08-25T06:38:52.199Z,25.65
2022-08-25T06:39:52.304Z,25.54
2022-08-25T06:40:52.447Z,25.46
2022-08-25T06:41:52.146Z,25.34
2022-08-25T06:42:52.127Z,25.25
2022-08-25T06:43:56.327Z,25.30
2022-08-25T06:44:52.187Z,25.17
2022-08-25T06:45:52.101Z,25.09
2022-08-25T06:46:52.120Z,25.01
2022-08-25T06:47:52.361Z,24.95
2022-08-25T06:48:52.076Z,24.91
2022-08-25T06:49:52.069Z,24.92
2022-08-25T06:50:52.110Z,24.95
2022-08-25T06:51:52.037Z,24.94
2022-08-25T06:52:52.034Z,24.85
2022-08-25T06:53:52.019Z,24.88
2022-08-25T06:54:52.290Z,24.91
2022-08-25T06:55:52.003Z,24.98
2022-08-25T06:56:52.027Z,25.09
2022-08-25T06:57:51.980Z,25.09
2022-08-25T06:58:51.982Z,25.13
2022-08-25T06:59:53.517Z,25.16
2022-08-25T07:00:52.059Z,25.17
2022-08-25T07:01:52.338Z,25.12
2022-08-25T07:02:51.975Z,25.09
2022-08-25T07:03:52.696Z,25.05
2022-08-25T07:04:51.918Z,25.10
2022-08-25T07:05:51.896Z,25.17
2022-08-25T07:06:51.913Z,25.16
2022-08-25T07:07:51.894Z,25.22
2022-08-25T07:08:52.225Z,25.32
2022-08-25T07:09:51.858Z,25.49
2022-08-25T07:10:51.869Z,25.61
2022-08-25T07:11:51.849Z,25.72
2022-08-25T07:12:51.847Z,25.71
2022-08-25T07:13:51.832Z,25.79
2022-08-25T07:15:10.133Z,25.82
2022-08-25T07:15:51.857Z,25.87
2022-08-25T07:16:51.834Z,25.90
2022-08-25T07:17:51.784Z,25.87
2022-08-25T07:18:51.789Z,25.86
2022-08-25T07:19:51.761Z,25.80
2022-08-25T07:20:51.791Z,25.80
2022-08-25T07:21:52.025Z,25.87
2022-08-25T07:22:51.731Z,25.90
2022-08-25T07:23:51.737Z,25.80
2022-08-25T07:24:51.751Z,25.90
2022-08-25T07:25:51.712Z,25.94
2022-08-25T07:26:51.768Z,26.01
2022-08-25T07:27:53.870Z,26.01
2022-08-25T07:28:51.704Z,25.94
2022-08-25T07:29:51.678Z,26.08
2022-08-25T07:30:52.174Z,26.22
2022-08-25T07:31:51.703Z,26.21
2022-08-25T07:32:55.169Z,26.17
2022-08-25T07:33:51.905Z,26.18
2022-08-25T07:34:52.177Z,26.11
2022-08-25T07:35:51.612Z,26.11
2022-08-25T07:36:51.606Z,26.11
2022-08-25T07:37:51.588Z,26.25
2022-08-25T07:38:51.610Z,26.39
2022-08-25T07:39:51.661Z,26.52
2022-08-25T07:40:53.348Z,26.61
2022-08-25T07:41:52.188Z,26.68
2022-08-25T07:42:51.545Z,26.72
2022-08-25T07:43:51.545Z,26.67
2022-08-25T07:44:51.559Z,26.64
2022-08-25T07:45:51.811Z,26.64
2022-08-25T07:46:51.574Z,26.64
2022-08-25T07:47:51.936Z,26.76
2022-08-25T07:48:53.233Z,26.95
2022-08-25T07:49:51.482Z,27.04
2022-08-25T07:50:51.522Z,27.13
2022-08-25T07:52:05.670Z,27.28
2022-08-25T07:52:55.038Z,27.41
2022-08-25T07:53:51.437Z,27.38
2022-08-25T07:54:51.734Z,27.36
2022-08-25T07:55:51.483Z,27.32
2022-08-25T07:56:51.439Z,27.33
2022-08-25T07:57:55.360Z,27.33
2022-08-25T07:58:51.412Z,27.32
2022-08-25T07:59:51.379Z,27.41
2022-08-25T08:00:51.371Z,27.54
2022-08-25T08:01:51.493Z,27.69
2022-08-25T08:02:51.525Z,27.64
2022-08-25T08:03:51.716Z,27.70
2022-08-25T08:04:51.346Z,27.74
2022-08-25T08:05:51.368Z,27.85
2022-08-25T08:06:51.361Z,27.94
2022-08-25T08:07:51.632Z,27.95
2022-08-25T08:08:54.560Z,28.03
2022-08-25T08:10:05.337Z,28.07
2022-08-25T08:11:04.865Z,28.10
2022-08-25T08:11:54.464Z,28.11
2022-08-25T08:12:51.296Z,28.11
2022-08-25T08:13:51.275Z,28.14
2022-08-25T08:14:51.839Z,28.29
2022-08-25T08:15:51.261Z,28.28
2022-08-25T08:16:51.245Z,28.29
2022-08-25T08:17:51.228Z,28.38
2022-08-25T08:18:51.223Z,28.44
2022-08-25T08:19:51.226Z,28.66
2022-08-25T08:20:51.244Z,28.82
2022-08-25T08:21:52.563Z,28.90
2022-08-25T08:22:51.197Z,28.82
2022-08-25T08:23:54.330Z,28.63
2022-08-25T08:24:56.086Z,28.35
2022-08-25T08:25:51.172Z,28.25
2022-08-25T08:26:58.569Z,28.33
2022-08-25T08:27:51.146Z,28.54
2022-08-25T08:28:52.132Z,28.59
2022-08-25T08:29:51.129Z,28.70
2022-08-25T08:30:53.700Z,28.78
2022-08-25T08:31:51.190Z,28.73
2022-08-25T08:33:09.255Z,28.73
2022-08-25T08:33:51.101Z,28.70
2022-08-25T08:34:51.502Z,28.73
2022-08-25T08:35:51.078Z,28.84
2022-08-25T08:36:51.062Z,28.95
2022-08-25T08:37:53.840Z,29.03
2022-08-25T08:38:51.085Z,29.22
2022-08-25T08:39:51.052Z,29.11
2022-08-25T08:40:51.030Z,28.96
2022-08-25T08:42:10.905Z,28.68
2022-08-25T08:42:51.013Z,28.70
2022-08-25T08:43:51.017Z,28.56
2022-08-25T08:44:51.036Z,28.43
2022-08-25T08:45:50.981Z,28.53
2022-08-25T08:46:51.022Z,28.53
2022-08-25T08:47:50.954Z,28.66
2022-08-25T08:48:51.237Z,28.75
2022-08-25T08:49:50.939Z,28.91
2022-08-25T08:50:50.967Z,29.13
2022-08-25T08:51:50.932Z,29.41
2022-08-25T08:52:50.936Z,29.59
2022-08-25T08:53:50.906Z,29.75
2022-08-25T08:54:50.909Z,29.75
2022-08-25T08:55:52.925Z,29.63
2022-08-25T08:56:50.907Z,29.55
2022-08-25T08:57:50.893Z,29.45
2022-08-25T08:58:50.864Z,29.44
2022-08-25T08:59:50.876Z,29.41
2022-08-25T09:00:52.412Z,29.43
2022-08-25T09:01:53.248Z,29.52
2022-08-25T09:02:52.157Z,29.52
2022-08-25T09:03:55.352Z,29.56
2022-08-25T09:04:50.824Z,29.45
2022-08-25T09:05:50.801Z,29.59
2022-08-25T09:06:50.791Z,29.63
2022-08-25T09:07:54.802Z,29.59
2022-08-25T09:08:50.832Z,29.65
2022-08-25T09:09:52.420Z,29.81
2022-08-25T09:10:50.774Z,29.79
2022-08-25T09:11:50.736Z,29.86
2022-08-25T09:12:50.802Z,30.09
2022-08-25T09:13:50.731Z,30.02
2022-08-25T09:14:53.719Z,29.92
2022-08-25T09:15:50.749Z,29.79
2022-08-25T09:16:51.030Z,29.81
2022-08-25T09:17:54.612Z,29.90
2022-08-25T09:18:50.892Z,29.93
2022-08-25T09:19:50.681Z,30.09
2022-08-25T09:20:50.717Z,30.37
2022-08-25T09:21:50.658Z,30.43
2022-08-25T09:22:50.652Z,30.40
2022-08-25T09:23:50.914Z,30.49
2022-08-25T09:24:50.641Z,30.59
2022-08-25T09:25:53.559Z,30.50
2022-08-25T09:26:50.638Z,30.52
2022-08-25T09:27:50.588Z,30.54
2022-08-25T09:28:51.236Z,30.53
2022-08-25T09:29:50.578Z,30.50
2022-08-25T09:30:50.952Z,30.69
2022-08-25T09:31:50.664Z,30.76
2022-08-25T09:32:52.543Z,30.68
2022-08-25T09:33:50.531Z,30.67
2022-08-25T09:34:50.530Z,30.72
2022-08-25T09:35:50.516Z,30.78
2022-08-25T09:36:50.515Z,30.59
2022-08-25T09:37:50.501Z,30.45
2022-08-25T09:38:50.540Z,30.36
2022-08-25T09:39:50.491Z,30.36
2022-08-25T09:40:50.480Z,30.29
2022-08-25T09:41:51.277Z,30.23
2022-08-25T09:42:50.469Z,30.33
2022-08-25T09:43:50.448Z,30.46
2022-08-25T09:44:50.492Z,30.57
2022-08-25T09:45:50.413Z,30.62
2022-08-25T09:46:50.420Z,30.67
2022-08-25T09:47:50.408Z,30.57
2022-08-25T09:48:55.706Z,30.53
2022-08-25T09:49:50.384Z,30.34
2022-08-25T09:50:50.425Z,30.34
2022-08-25T09:51:52.705Z,30.47
2022-08-25T09:52:53.456Z,30.74
2022-08-25T09:53:50.367Z,31.18
2022-08-25T09:54:50.357Z,31.58
2022-08-25T09:55:50.626Z,31.79
2022-08-25T09:56:50.367Z,31.93
2022-08-25T09:57:52.966Z,31.99
2022-08-25T09:58:50.350Z,32.02
2022-08-25T09:59:57.405Z,31.73
2022-08-25T10:00:50.304Z,31.76
2022-08-25T10:01:50.327Z,31.92
2022-08-25T10:02:50.300Z,32.05
2022-08-25T10:03:50.265Z,31.84
2022-08-25T10:04:50.322Z,31.77
2022-08-25T10:05:52.484Z,31.60
2022-08-25T10:06:50.249Z,31.61
2022-08-25T10:07:51.807Z,31.24
2022-08-25T10:08:50.248Z,30.98
2022-08-25T10:09:50.201Z,31.20
2022-08-25T10:10:50.199Z,31.45
2022-08-25T10:11:50.327Z,31.27
2022-08-25T10:12:51.155Z,31.27
2022-08-25T10:13:50.163Z,31.40
2022-08-25T10:14:50.482Z,31.53
2022-08-25T10:15:50.226Z,31.42
2022-08-25T10:16:50.242Z,31.48
2022-08-25T10:17:50.118Z,31.05
2022-08-25T10:18:50.179Z,30.96
2022-08-25T10:19:50.117Z,31.12
2022-08-25T10:20:50.159Z,31.21
2022-08-25T10:21:50.380Z,31.20
2022-08-25T10:22:50.426Z,31.33
2022-08-25T10:23:50.079Z,31.38
2022-08-25T10:24:50.065Z,31.11
2022-08-25T10:25:59.387Z,31.08
2022-08-25T10:26:50.086Z,31.01
2022-08-25T10:27:50.042Z,30.68
2022-08-25T10:28:50.324Z,30.57
2022-08-25T10:29:50.013Z,30.67
2022-08-25T10:30:50.114Z,30.87
2022-08-25T10:31:50.007Z,31.02
2022-08-25T10:32:50.005Z,31.18
2022-08-25T10:33:50.399Z,31.45
2022-08-25T10:34:51.689Z,31.70
2022-08-25T10:35:50.231Z,31.88
2022-08-25T10:36:49.959Z,32.05
2022-08-25T10:37:49.937Z,32.14
2022-08-25T10:38:49.992Z,31.99
2022-08-25T10:39:55.353Z,31.76
2022-08-25T10:40:49.921Z,31.39
2022-08-25T10:41:49.897Z,31.13
2022-08-25T10:42:50.195Z,31.13
2022-08-25T10:43:49.877Z,31.31
2022-08-25T10:44:49.939Z,31.35
2022-08-25T10:45:51.032Z,31.49
2022-08-25T10:46:49.861Z,31.64
2022-08-25T10:47:49.855Z,31.84
2022-08-25T10:48:49.829Z,32.05
2022-08-25T10:49:50.244Z,32.11
2022-08-25T10:50:49.867Z,31.85
2022-08-25T10:51:51.020Z,31.91
2022-08-25T10:52:49.795Z,31.96
2022-08-25T10:53:49.782Z,32.07
2022-08-25T10:54:49.780Z,32.18
2022-08-25T10:55:50.333Z,32.33
2022-08-25T10:56:50.058Z,32.43
2022-08-25T10:57:49.758Z,32.71
2022-08-25T10:58:49.726Z,32.80
2022-08-25T10:59:49.747Z,32.92
2022-08-25T11:00:49.713Z,32.77
2022-08-25T11:01:53.398Z,32.79
2022-08-25T11:02:49.733Z,32.92
2022-08-25T11:03:49.987Z,33.15
2022-08-25T11:04:49.731Z,33.26
2022-08-25T11:05:49.691Z,33.41
2022-08-25T11:06:53.120Z,33.27
2022-08-25T11:07:49.655Z,33.15
2022-08-25T11:08:49.669Z,33.31
2022-08-25T11:09:49.635Z,33.33
2022-08-25T11:10:50.519Z,33.43
2022-08-25T11:11:49.610Z,33.68
2022-08-25T11:12:49.602Z,33.85
2022-08-25T11:13:49.587Z,33.97
2022-08-25T11:14:49.606Z,33.74
2022-08-25T11:16:06.574Z,33.63
2022-08-25T11:16:49.630Z,33.57
2022-08-25T11:17:50.272Z,33.64
2022-08-25T11:18:49.530Z,33.64
2022-08-25T11:19:49.535Z,33.63
2022-08-25T11:20:49.569Z,33.73
2022-08-25T11:21:49.549Z,33.68
2022-08-25T11:22:49.793Z,33.64
2022-08-25T11:23:49.498Z,33.65
2022-08-25T11:24:49.487Z,33.46
2022-08-25T11:25:49.477Z,33.52
2022-08-25T11:26:49.519Z,33.70
2022-08-25T11:27:49.453Z,34.00
2022-08-25T11:28:49.434Z,34.07
2022-08-25T11:29:49.438Z,34.02
2022-08-25T11:30:49.460Z,34.27
2022-08-25T11:31:53.103Z,34.29
2022-08-25T11:32:49.440Z,34.19
2022-08-25T11:33:49.389Z,33.70
2022-08-25T11:34:49.641Z,33.63
2022-08-25T11:35:49.381Z,33.65
2022-08-25T11:36:49.363Z,33.71
2022-08-25T11:37:49.356Z,34.00
2022-08-25T11:38:49.368Z,34.17
2022-08-25T11:39:49.369Z,34.07
2022-08-25T11:40:50.212Z,34.04
2022-08-25T11:41:49.314Z,34.31
2022-08-25T11:42:49.310Z,34.34
2022-08-25T11:43:49.313Z,34.26
2022-08-25T11:44:54.028Z,34.58
2022-08-25T11:45:54.107Z,35.06
2022-08-25T11:46:49.266Z,35.32
2022-08-25T11:47:49.271Z,34.95
2022-08-25T11:48:49.246Z,34.84
2022-08-25T11:49:49.245Z,34.77
2022-08-25T11:50:49.256Z,34.56
2022-08-25T11:51:49.216Z,34.58
2022-08-25T11:52:49.486Z,34.58
2022-08-25T11:53:49.214Z,34.58
2022-08-25T11:54:49.176Z,34.70
2022-08-25T11:55:49.188Z,34.89
2022-08-25T11:56:49.189Z,35.20
2022-08-25T11:57:53.124Z,35.37
2022-08-25T11:58:49.736Z,35.57
2022-08-25T11:59:49.429Z,34.80
2022-08-25T12:00:49.127Z,34.56
2022-08-25T12:01:49.118Z,34.11
2022-08-25T12:02:49.137Z,34.13
2022-08-25T12:03:50.816Z,34.16
2022-08-25T12:04:49.160Z,34.45
2022-08-25T12:05:49.092Z,34.54
2022-08-25T12:06:49.356Z,34.00
2022-08-25T12:07:49.081Z,34.19
2022-08-25T12:08:49.076Z,34.83
2022-08-25T12:09:49.038Z,35.39
2022-08-25T12:10:49.032Z,35.60
2022-08-25T12:11:49.008Z,35.44
2022-08-25T12:12:49.016Z,34.29
2022-08-25T12:13:49.302Z,34.64
2022-08-25T12:14:49.007Z,34.77
2022-08-25T12:15:49.670Z,35.08
2022-08-25T12:16:48.983Z,35.69
2022-08-25T12:17:48.973Z,35.85
2022-08-25T12:18:50.488Z,35.26
2022-08-25T12:19:49.291Z,34.91
2022-08-25T12:20:49.242Z,34.99
2022-08-25T12:21:48.919Z,34.98
2022-08-25T12:22:48.913Z,35.11
2022-08-25T12:23:52.841Z,35.39
2022-08-25T12:24:48.919Z,35.63
2022-08-25T12:25:48.881Z,36.12
2022-08-25T12:26:48.895Z,36.38
2022-08-25T12:27:49.141Z,36.63
2022-08-25T12:28:48.840Z,36.52
2022-08-25T12:29:48.838Z,35.73
2022-08-25T12:30:50.434Z,34.96
2022-08-25T12:31:48.837Z,34.64
2022-08-25T12:32:48.826Z,34.77
2022-08-25T12:33:48.798Z,34.96
2022-08-25T12:34:49.054Z,35.44
2022-08-25T12:35:48.769Z,35.91
2022-08-25T12:36:48.773Z,36.04
2022-08-25T12:37:48.766Z,36.06
2022-08-25T12:38:52.297Z,36.11
2022-08-25T12:39:48.881Z,35.54
2022-08-25T12:40:48.729Z,35.30
2022-08-25T12:41:49.028Z,35.45
2022-08-25T12:42:48.716Z,35.95
2022-08-25T12:43:48.695Z,36.14
2022-08-25T12:44:48.737Z,36.14
2022-08-25T12:45:48.777Z,35.88
2022-08-25T12:46:48.658Z,35.63
2022-08-25T12:47:48.690Z,35.50
2022-08-25T12:48:48.945Z,35.79
2022-08-25T12:49:48.638Z,35.55
2022-08-25T12:50:48.656Z,35.11
2022-08-25T12:51:48.968Z,34.98
2022-08-25T12:52:48.598Z,34.61